sensor_id;sensor_type;location;lat;lon;timestamp;P1;durP1;ratioP1;P2;durP2;ratioP2
75261;SDS011;63859;51.064;4.580;2023-05-10T00:01:25;19.35;;;10.07;;
75261;SDS011;63859;51.064;4.580;2023-05-10T00:03:50;25.00;;;10.43;;
75261;SDS011;63859;51.064;4.580;2023-05-10T00:06:17;23.13;;;10.97;;
75261;SDS011;63859;51.064;4.580;2023-05-10T00:08:43;23.75;;;10.70;;
75261;SDS011;63859;51.064;4.580;2023-05-10T00:11:08;17.30;;;11.20;;
75261;SDS011;63859;51.064;4.580;2023-05-10T00:13:34;22.77;;;11.77;;
75261;SDS011;63859;51.064;4.580;2023-05-10T00:16:01;26.60;;;12.55;;
75261;SDS011;63859;51.064;4.580;2023-05-10T00:18:27;22.40;;;12.05;;
75261;SDS011;63859;51.064;4.580;2023-05-10T00:20:52;27.27;;;12.18;;
75261;SDS011;63859;51.064;4.580;2023-05-10T00:23:18;24.98;;;12.65;;
75261;SDS011;63859;51.064;4.580;2023-05-10T00:25:44;19.38;;;11.60;;
75261;SDS011;63859;51.064;4.580;2023-05-10T00:28:09;26.63;;;12.45;;
75261;SDS011;63859;51.064;4.580;2023-05-10T00:30:35;25.42;;;12.57;;
75261;SDS011;63859;51.064;4.580;2023-05-10T00:33:01;24.23;;;12.85;;
75261;SDS011;63859;51.064;4.580;2023-05-10T00:35:27;31.35;;;12.95;;
75261;SDS011;63859;51.064;4.580;2023-05-10T00:37:53;30.75;;;13.10;;
75261;SDS011;63859;51.064;4.580;2023-05-10T00:40:19;29.25;;;13.73;;
75261;SDS011;63859;51.064;4.580;2023-05-10T00:42:46;39.08;;;14.43;;
75261;SDS011;63859;51.064;4.580;2023-05-10T00:45:12;37.33;;;15.48;;
75261;SDS011;63859;51.064;4.580;2023-05-10T00:47:38;32.78;;;14.45;;
75261;SDS011;63859;51.064;4.580;2023-05-10T00:50:04;35.50;;;14.48;;
75261;SDS011;63859;51.064;4.580;2023-05-10T00:52:31;27.27;;;13.23;;
75261;SDS011;63859;51.064;4.580;2023-05-10T00:54:57;29.38;;;14.15;;
75261;SDS011;63859;51.064;4.580;2023-05-10T00:57:23;27.55;;;12.80;;
75261;SDS011;63859;51.064;4.580;2023-05-10T00:59:50;27.42;;;12.38;;
75261;SDS011;63859;51.064;4.580;2023-05-10T01:02:16;26.55;;;12.55;;
75261;SDS011;63859;51.064;4.580;2023-05-10T01:04:42;24.15;;;12.07;;
75261;SDS011;63859;51.064;4.580;2023-05-10T01:07:08;27.13;;;11.48;;
75261;SDS011;63859;51.064;4.580;2023-05-10T01:09:34;26.27;;;12.15;;
75261;SDS011;63859;51.064;4.580;2023-05-10T01:12:00;23.52;;;11.95;;
75261;SDS011;63859;51.064;4.580;2023-05-10T01:14:27;24.40;;;11.23;;
75261;SDS011;63859;51.064;4.580;2023-05-10T01:16:54;28.33;;;12.27;;
75261;SDS011;63859;51.064;4.580;2023-05-10T01:19:24;28.70;;;12.02;;
75261;SDS011;63859;51.064;4.580;2023-05-10T01:22:03;29.53;;;12.43;;
75261;SDS011;63859;51.064;4.580;2023-05-10T01:31:14;31.13;;;13.13;;
75261;SDS011;63859;51.064;4.580;2023-05-10T01:33:57;22.47;;;12.20;;
75261;SDS011;63859;51.064;4.580;2023-05-10T01:39:07;26.17;;;13.10;;
75261;SDS011;63859;51.064;4.580;2023-05-10T01:41:48;28.20;;;13.07;;
75261;SDS011;63859;51.064;4.580;2023-05-10T01:47:09;28.52;;;13.40;;
75261;SDS011;63859;51.064;4.580;2023-05-10T01:49:55;28.13;;;13.45;;
75261;SDS011;63859;51.064;4.580;2023-05-10T01:52:26;24.95;;;13.63;;
75261;SDS011;63859;51.064;4.580;2023-05-10T01:54:58;34.30;;;14.43;;
75261;SDS011;63859;51.064;4.580;2023-05-10T01:57:27;28.13;;;14.55;;
75261;SDS011;63859;51.064;4.580;2023-05-10T01:59:58;28.60;;;14.70;;
75261;SDS011;63859;51.064;4.580;2023-05-10T02:02:25;25.83;;;13.80;;
75261;SDS011;63859;51.064;4.580;2023-05-10T02:04:53;33.60;;;14.73;;
75261;SDS011;63859;51.064;4.580;2023-05-10T02:07:21;29.92;;;14.18;;
75261;SDS011;63859;51.064;4.580;2023-05-10T02:09:48;31.30;;;15.80;;
75261;SDS011;63859;51.064;4.580;2023-05-10T02:12:15;31.60;;;15.30;;
75261;SDS011;63859;51.064;4.580;2023-05-10T02:14:42;29.52;;;15.05;;
75261;SDS011;63859;51.064;4.580;2023-05-10T02:17:10;31.03;;;15.37;;
75261;SDS011;63859;51.064;4.580;2023-05-10T02:19:39;31.42;;;15.50;;
75261;SDS011;63859;51.064;4.580;2023-05-10T02:22:06;32.90;;;14.60;;
75261;SDS011;63859;51.064;4.580;2023-05-10T02:24:33;31.13;;;15.93;;
75261;SDS011;63859;51.064;4.580;2023-05-10T02:27:02;38.58;;;15.50;;
75261;SDS011;63859;51.064;4.580;2023-05-10T02:29:29;31.63;;;16.40;;
75261;SDS011;63859;51.064;4.580;2023-05-10T02:31:57;29.55;;;14.07;;
75261;SDS011;63859;51.064;4.580;2023-05-10T02:34:25;29.50;;;15.68;;
75261;SDS011;63859;51.064;4.580;2023-05-10T02:36:53;35.00;;;15.32;;
75261;SDS011;63859;51.064;4.580;2023-05-10T02:39:20;38.60;;;16.05;;
75261;SDS011;63859;51.064;4.580;2023-05-10T02:41:48;35.03;;;16.70;;
75261;SDS011;63859;51.064;4.580;2023-05-10T02:44:15;35.47;;;16.73;;
75261;SDS011;63859;51.064;4.580;2023-05-10T02:46:45;32.80;;;16.95;;
75261;SDS011;63859;51.064;4.580;2023-05-10T02:49:10;33.73;;;16.13;;
75261;SDS011;63859;51.064;4.580;2023-05-10T02:51:37;35.00;;;16.67;;
75261;SDS011;63859;51.064;4.580;2023-05-10T02:54:13;36.63;;;16.92;;
75261;SDS011;63859;51.064;4.580;2023-05-10T02:56:47;32.53;;;17.20;;
75261;SDS011;63859;51.064;4.580;2023-05-10T02:59:15;35.03;;;16.97;;
75261;SDS011;63859;51.064;4.580;2023-05-10T03:01:41;35.83;;;16.85;;
75261;SDS011;63859;51.064;4.580;2023-05-10T03:04:07;38.70;;;16.83;;
75261;SDS011;63859;51.064;4.580;2023-05-10T03:06:32;42.75;;;17.27;;
75261;SDS011;63859;51.064;4.580;2023-05-10T03:08:58;35.00;;;17.95;;
75261;SDS011;63859;51.064;4.580;2023-05-10T03:16:57;43.95;;;17.88;;
75261;SDS011;63859;51.064;4.580;2023-05-10T03:19:54;35.17;;;16.95;;
75261;SDS011;63859;51.064;4.580;2023-05-10T03:22:26;35.30;;;18.63;;
75261;SDS011;63859;51.064;4.580;2023-05-10T03:25:02;45.50;;;20.37;;
75261;SDS011;63859;51.064;4.580;2023-05-10T03:27:32;47.72;;;21.50;;
75261;SDS011;63859;51.064;4.580;2023-05-10T03:29:59;41.60;;;18.50;;
75261;SDS011;63859;51.064;4.580;2023-05-10T03:32:26;39.87;;;20.37;;
75261;SDS011;63859;51.064;4.580;2023-05-10T03:34:54;45.50;;;22.13;;
75261;SDS011;63859;51.064;4.580;2023-05-10T03:37:20;47.85;;;22.15;;
75261;SDS011;63859;51.064;4.580;2023-05-10T03:39:45;43.73;;;22.40;;
75261;SDS011;63859;51.064;4.580;2023-05-10T03:42:11;45.75;;;22.90;;
75261;SDS011;63859;51.064;4.580;2023-05-10T03:44:37;44.07;;;22.43;;
75261;SDS011;63859;51.064;4.580;2023-05-10T03:47:04;40.67;;;22.87;;
75261;SDS011;63859;51.064;4.580;2023-05-10T03:49:29;44.53;;;22.83;;
75261;SDS011;63859;51.064;4.580;2023-05-10T03:51:55;51.50;;;23.10;;
75261;SDS011;63859;51.064;4.580;2023-05-10T03:54:20;46.23;;;22.07;;
75261;SDS011;63859;51.064;4.580;2023-05-10T03:56:46;41.27;;;21.23;;
75261;SDS011;63859;51.064;4.580;2023-05-10T03:59:15;46.57;;;23.30;;
75261;SDS011;63859;51.064;4.580;2023-05-10T04:01:40;46.50;;;24.40;;
75261;SDS011;63859;51.064;4.580;2023-05-10T04:04:06;45.93;;;23.53;;
75261;SDS011;63859;51.064;4.580;2023-05-10T04:06:32;49.50;;;23.63;;
75261;SDS011;63859;51.064;4.580;2023-05-10T04:08:57;48.20;;;24.70;;
75261;SDS011;63859;51.064;4.580;2023-05-10T04:11:25;50.97;;;24.40;;
75261;SDS011;63859;51.064;4.580;2023-05-10T04:13:51;52.78;;;26.13;;
75261;SDS011;63859;51.064;4.580;2023-05-10T04:16:16;53.63;;;26.63;;
75261;SDS011;63859;51.064;4.580;2023-05-10T04:18:42;57.03;;;27.80;;
75261;SDS011;63859;51.064;4.580;2023-05-10T04:21:11;58.92;;;28.92;;
75261;SDS011;63859;51.064;4.580;2023-05-10T04:23:38;60.03;;;28.63;;
75261;SDS011;63859;51.064;4.580;2023-05-10T04:26:04;65.03;;;29.77;;
75261;SDS011;63859;51.064;4.580;2023-05-10T04:28:30;66.10;;;31.87;;
75261;SDS011;63859;51.064;4.580;2023-05-10T04:31:02;79.75;;;33.90;;
75261;SDS011;63859;51.064;4.580;2023-05-10T04:33:29;84.80;;;35.80;;
75261;SDS011;63859;51.064;4.580;2023-05-10T04:35:55;90.40;;;37.08;;
75261;SDS011;63859;51.064;4.580;2023-05-10T04:38:21;86.07;;;36.17;;
75261;SDS011;63859;51.064;4.580;2023-05-10T04:40:47;87.23;;;37.00;;
75261;SDS011;63859;51.064;4.580;2023-05-10T04:43:12;83.37;;;35.37;;
75261;SDS011;63859;51.064;4.580;2023-05-10T04:45:38;86.05;;;35.45;;
75261;SDS011;63859;51.064;4.580;2023-05-10T04:48:03;86.63;;;36.20;;
75261;SDS011;63859;51.064;4.580;2023-05-10T04:50:29;88.30;;;36.73;;
75261;SDS011;63859;51.064;4.580;2023-05-10T04:52:56;88.55;;;36.20;;
75261;SDS011;63859;51.064;4.580;2023-05-10T04:55:22;94.10;;;36.53;;
75261;SDS011;63859;51.064;4.580;2023-05-10T04:57:48;88.97;;;36.43;;
75261;SDS011;63859;51.064;4.580;2023-05-10T05:00:14;97.78;;;36.95;;
75261;SDS011;63859;51.064;4.580;2023-05-10T05:02:43;84.22;;;34.22;;
75261;SDS011;63859;51.064;4.580;2023-05-10T05:05:10;80.85;;;33.65;;
75261;SDS011;63859;51.064;4.580;2023-05-10T05:07:36;86.35;;;34.97;;
75261;SDS011;63859;51.064;4.580;2023-05-10T05:10:03;86.13;;;34.28;;
75261;SDS011;63859;51.064;4.580;2023-05-10T05:12:33;83.53;;;34.33;;
75261;SDS011;63859;51.064;4.580;2023-05-10T05:14:59;83.23;;;34.93;;
75261;SDS011;63859;51.064;4.580;2023-05-10T05:17:25;90.27;;;36.50;;
75261;SDS011;63859;51.064;4.580;2023-05-10T05:19:50;99.17;;;38.80;;
75261;SDS011;63859;51.064;4.580;2023-05-10T05:22:16;90.30;;;36.77;;
75261;SDS011;63859;51.064;4.580;2023-05-10T05:24:42;89.40;;;37.37;;
75261;SDS011;63859;51.064;4.580;2023-05-10T05:27:07;84.63;;;36.25;;
75261;SDS011;63859;51.064;4.580;2023-05-10T05:29:33;84.23;;;36.63;;
75261;SDS011;63859;51.064;4.580;2023-05-10T05:31:59;82.33;;;36.70;;
75261;SDS011;63859;51.064;4.580;2023-05-10T05:34:25;87.22;;;35.72;;
75261;SDS011;63859;51.064;4.580;2023-05-10T05:36:52;76.72;;;32.15;;
75261;SDS011;63859;51.064;4.580;2023-05-10T05:39:18;76.57;;;33.45;;
75261;SDS011;63859;51.064;4.580;2023-05-10T05:41:44;72.10;;;31.63;;
75261;SDS011;63859;51.064;4.580;2023-05-10T05:44:11;78.00;;;34.13;;
75261;SDS011;63859;51.064;4.580;2023-05-10T05:46:36;72.53;;;31.93;;
75261;SDS011;63859;51.064;4.580;2023-05-10T05:49:02;71.95;;;31.63;;
75261;SDS011;63859;51.064;4.580;2023-05-10T05:51:28;66.13;;;30.45;;
75261;SDS011;63859;51.064;4.580;2023-05-10T05:53:53;66.30;;;29.97;;
75261;SDS011;63859;51.064;4.580;2023-05-10T05:56:19;72.30;;;30.08;;
75261;SDS011;63859;51.064;4.580;2023-05-10T05:58:49;63.53;;;30.65;;
75261;SDS011;63859;51.064;4.580;2023-05-10T06:01:15;61.92;;;30.30;;
75261;SDS011;63859;51.064;4.580;2023-05-10T06:03:41;64.60;;;28.65;;
75261;SDS011;63859;51.064;4.580;2023-05-10T06:06:07;58.78;;;28.65;;
75261;SDS011;63859;51.064;4.580;2023-05-10T06:08:33;56.78;;;29.02;;
75261;SDS011;63859;51.064;4.580;2023-05-10T06:10:59;63.75;;;29.58;;
75261;SDS011;63859;51.064;4.580;2023-05-10T06:13:25;58.72;;;28.85;;
75261;SDS011;63859;51.064;4.580;2023-05-10T06:15:57;54.55;;;27.38;;
75261;SDS011;63859;51.064;4.580;2023-05-10T06:18:23;56.75;;;27.70;;
75261;SDS011;63859;51.064;4.580;2023-05-10T06:20:49;59.28;;;27.48;;
75261;SDS011;63859;51.064;4.580;2023-05-10T06:23:15;56.58;;;25.65;;
75261;SDS011;63859;51.064;4.580;2023-05-10T06:25:41;57.30;;;26.88;;
75261;SDS011;63859;51.064;4.580;2023-05-10T06:28:07;62.55;;;27.52;;
75261;SDS011;63859;51.064;4.580;2023-05-10T06:30:32;56.28;;;28.08;;
75261;SDS011;63859;51.064;4.580;2023-05-10T06:32:58;54.20;;;27.60;;
75261;SDS011;63859;51.064;4.580;2023-05-10T06:35:24;54.65;;;27.48;;
75261;SDS011;63859;51.064;4.580;2023-05-10T06:37:50;54.20;;;26.48;;
75261;SDS011;63859;51.064;4.580;2023-05-10T06:40:16;49.70;;;26.92;;
75261;SDS011;63859;51.064;4.580;2023-05-10T06:42:42;48.67;;;26.13;;
75261;SDS011;63859;51.064;4.580;2023-05-10T06:45:09;48.70;;;24.95;;
75261;SDS011;63859;51.064;4.580;2023-05-10T06:47:35;52.78;;;26.00;;
75261;SDS011;63859;51.064;4.580;2023-05-10T06:50:01;42.17;;;22.33;;
75261;SDS011;63859;51.064;4.580;2023-05-10T06:52:27;46.55;;;23.00;;
75261;SDS011;63859;51.064;4.580;2023-05-10T06:54:53;46.42;;;21.50;;
75261;SDS011;63859;51.064;4.580;2023-05-10T06:57:19;46.78;;;22.58;;
75261;SDS011;63859;51.064;4.580;2023-05-10T06:59:45;43.10;;;21.85;;
75261;SDS011;63859;51.064;4.580;2023-05-10T07:02:11;39.00;;;21.50;;
75261;SDS011;63859;51.064;4.580;2023-05-10T07:04:37;39.95;;;21.30;;
75261;SDS011;63859;51.064;4.580;2023-05-10T07:07:03;39.60;;;20.65;;
75261;SDS011;63859;51.064;4.580;2023-05-10T07:09:29;35.53;;;20.75;;
75261;SDS011;63859;51.064;4.580;2023-05-10T07:11:54;43.13;;;21.02;;
75261;SDS011;63859;51.064;4.580;2023-05-10T07:14:22;41.50;;;22.42;;
75261;SDS011;63859;51.064;4.580;2023-05-10T07:16:47;40.10;;;21.42;;
75261;SDS011;63859;51.064;4.580;2023-05-10T07:19:13;41.58;;;20.45;;
75261;SDS011;63859;51.064;4.580;2023-05-10T07:21:39;41.15;;;21.92;;
75261;SDS011;63859;51.064;4.580;2023-05-10T07:24:07;40.92;;;21.85;;
75261;SDS011;63859;51.064;4.580;2023-05-10T07:26:33;41.85;;;23.50;;
75261;SDS011;63859;51.064;4.580;2023-05-10T07:28:58;43.22;;;24.27;;
75261;SDS011;63859;51.064;4.580;2023-05-10T07:31:24;46.22;;;22.52;;
75261;SDS011;63859;51.064;4.580;2023-05-10T07:33:50;40.00;;;21.33;;
75261;SDS011;63859;51.064;4.580;2023-05-10T07:36:16;38.13;;;20.38;;
75261;SDS011;63859;51.064;4.580;2023-05-10T07:38:42;33.08;;;16.65;;
75261;SDS011;63859;51.064;4.580;2023-05-10T07:41:09;41.30;;;21.73;;
75261;SDS011;63859;51.064;4.580;2023-05-10T07:43:36;36.20;;;19.20;;
75261;SDS011;63859;51.064;4.580;2023-05-10T07:46:02;37.58;;;20.00;;
75261;SDS011;63859;51.064;4.580;2023-05-10T07:48:27;35.20;;;19.30;;
75261;SDS011;63859;51.064;4.580;2023-05-10T07:50:53;32.55;;;19.23;;
75261;SDS011;63859;51.064;4.580;2023-05-10T07:53:19;35.67;;;20.08;;
75261;SDS011;63859;51.064;4.580;2023-05-10T07:55:58;33.35;;;18.60;;
75261;SDS011;63859;51.064;4.580;2023-05-10T07:58:24;33.25;;;17.67;;
75261;SDS011;63859;51.064;4.580;2023-05-10T08:00:50;35.88;;;18.02;;
75261;SDS011;63859;51.064;4.580;2023-05-10T08:03:16;30.33;;;17.70;;
75261;SDS011;63859;51.064;4.580;2023-05-10T08:05:41;36.88;;;18.30;;
75261;SDS011;63859;51.064;4.580;2023-05-10T08:08:07;31.88;;;18.60;;
75261;SDS011;63859;51.064;4.580;2023-05-10T08:10:34;30.40;;;18.90;;
75261;SDS011;63859;51.064;4.580;2023-05-10T08:13:00;37.33;;;19.15;;
75261;SDS011;63859;51.064;4.580;2023-05-10T08:15:25;37.83;;;19.83;;
75261;SDS011;63859;51.064;4.580;2023-05-10T08:17:51;32.97;;;19.90;;
75261;SDS011;63859;51.064;4.580;2023-05-10T08:20:17;34.95;;;19.80;;
75261;SDS011;63859;51.064;4.580;2023-05-10T08:22:45;35.40;;;21.02;;
75261;SDS011;63859;51.064;4.580;2023-05-10T08:25:10;44.40;;;22.35;;
75261;SDS011;63859;51.064;4.580;2023-05-10T08:27:36;43.00;;;21.35;;
75261;SDS011;63859;51.064;4.580;2023-05-10T08:30:02;46.08;;;23.25;;
75261;SDS011;63859;51.064;4.580;2023-05-10T08:32:28;41.00;;;22.80;;
75261;SDS011;63859;51.064;4.580;2023-05-10T08:34:54;39.58;;;21.55;;
75261;SDS011;63859;51.064;4.580;2023-05-10T08:37:22;51.92;;;21.67;;
75261;SDS011;63859;51.064;4.580;2023-05-10T08:39:48;37.35;;;20.85;;
75261;SDS011;63859;51.064;4.580;2023-05-10T08:42:15;41.85;;;20.98;;
75261;SDS011;63859;51.064;4.580;2023-05-10T08:44:45;30.92;;;19.88;;
75261;SDS011;63859;51.064;4.580;2023-05-10T08:47:13;35.13;;;18.08;;
75261;SDS011;63859;51.064;4.580;2023-05-10T08:49:41;33.75;;;18.35;;
75261;SDS011;63859;51.064;4.580;2023-05-10T08:52:08;30.27;;;17.35;;
75261;SDS011;63859;51.064;4.580;2023-05-10T08:54:36;32.55;;;17.75;;
75261;SDS011;63859;51.064;4.580;2023-05-10T08:57:02;31.33;;;17.40;;
75261;SDS011;63859;51.064;4.580;2023-05-10T08:59:28;35.22;;;17.35;;
75261;SDS011;63859;51.064;4.580;2023-05-10T09:01:55;38.95;;;17.58;;
75261;SDS011;63859;51.064;4.580;2023-05-10T09:04:23;34.05;;;16.90;;
75261;SDS011;63859;51.064;4.580;2023-05-10T09:06:49;33.10;;;16.08;;
75261;SDS011;63859;51.064;4.580;2023-05-10T09:09:14;30.20;;;15.85;;
75261;SDS011;63859;51.064;4.580;2023-05-10T09:11:41;32.38;;;16.27;;
75261;SDS011;63859;51.064;4.580;2023-05-10T09:14:07;29.55;;;14.80;;
75261;SDS011;63859;51.064;4.580;2023-05-10T09:16:34;25.30;;;13.85;;
75261;SDS011;63859;51.064;4.580;2023-05-10T09:19:00;24.60;;;13.18;;
75261;SDS011;63859;51.064;4.580;2023-05-10T09:21:25;28.67;;;13.32;;
75261;SDS011;63859;51.064;4.580;2023-05-10T09:23:52;21.95;;;12.30;;
75261;SDS011;63859;51.064;4.580;2023-05-10T09:26:21;27.40;;;13.07;;
75261;SDS011;63859;51.064;4.580;2023-05-10T09:28:55;31.60;;;12.45;;
75261;SDS011;63859;51.064;4.580;2023-05-10T09:31:22;23.45;;;11.82;;
75261;SDS011;63859;51.064;4.580;2023-05-10T09:33:50;23.30;;;11.85;;
75261;SDS011;63859;51.064;4.580;2023-05-10T09:36:18;21.10;;;12.20;;
75261;SDS011;63859;51.064;4.580;2023-05-10T09:38:53;28.83;;;11.82;;
75261;SDS011;63859;51.064;4.580;2023-05-10T09:41:19;21.67;;;12.20;;
75261;SDS011;63859;51.064;4.580;2023-05-10T09:43:46;25.35;;;11.82;;
75261;SDS011;63859;51.064;4.580;2023-05-10T09:46:13;22.90;;;11.40;;
75261;SDS011;63859;51.064;4.580;2023-05-10T09:48:44;25.10;;;12.35;;
75261;SDS011;63859;51.064;4.580;2023-05-10T09:51:18;21.90;;;12.07;;
75261;SDS011;63859;51.064;4.580;2023-05-10T09:53:48;24.55;;;11.75;;
75261;SDS011;63859;51.064;4.580;2023-05-10T09:56:33;25.00;;;13.05;;
75261;SDS011;63859;51.064;4.580;2023-05-10T09:59:05;23.88;;;11.45;;
75261;SDS011;63859;51.064;4.580;2023-05-10T10:01:31;23.60;;;13.38;;
75261;SDS011;63859;51.064;4.580;2023-05-10T10:03:58;25.88;;;12.38;;
75261;SDS011;63859;51.064;4.580;2023-05-10T10:06:24;21.75;;;12.45;;
75261;SDS011;63859;51.064;4.580;2023-05-10T10:08:50;25.77;;;12.68;;
75261;SDS011;63859;51.064;4.580;2023-05-10T10:11:17;22.58;;;11.65;;
75261;SDS011;63859;51.064;4.580;2023-05-10T10:13:44;22.70;;;11.77;;
75261;SDS011;63859;51.064;4.580;2023-05-10T10:16:09;20.33;;;11.30;;
75261;SDS011;63859;51.064;4.580;2023-05-10T10:18:36;20.88;;;11.45;;
75261;SDS011;63859;51.064;4.580;2023-05-10T10:21:05;21.77;;;11.95;;
75261;SDS011;63859;51.064;4.580;2023-05-10T10:23:34;24.42;;;11.82;;
75261;SDS011;63859;51.064;4.580;2023-05-10T10:26:00;19.15;;;10.55;;
75261;SDS011;63859;51.064;4.580;2023-05-10T10:31:21;20.88;;;10.90;;
75261;SDS011;63859;51.064;4.580;2023-05-10T10:36:33;21.08;;;11.88;;
75261;SDS011;63859;51.064;4.580;2023-05-10T10:39:08;19.48;;;11.70;;
75261;SDS011;63859;51.064;4.580;2023-05-10T10:41:35;26.25;;;11.70;;
75261;SDS011;63859;51.064;4.580;2023-05-10T10:50:06;23.42;;;12.90;;
75261;SDS011;63859;51.064;4.580;2023-05-10T10:52:36;25.48;;;12.70;;
75261;SDS011;63859;51.064;4.580;2023-05-10T10:55:11;23.13;;;12.70;;
75261;SDS011;63859;51.064;4.580;2023-05-10T10:57:55;22.70;;;12.07;;
75261;SDS011;63859;51.064;4.580;2023-05-10T11:00:35;23.30;;;11.27;;
75261;SDS011;63859;51.064;4.580;2023-05-10T11:03:03;22.38;;;10.75;;
75261;SDS011;63859;51.064;4.580;2023-05-10T11:08:07;15.15;;;9.73;;
75261;SDS011;63859;51.064;4.580;2023-05-10T11:10:38;17.38;;;9.43;;
75261;SDS011;63859;51.064;4.580;2023-05-10T11:13:05;16.00;;;9.20;;
75261;SDS011;63859;51.064;4.580;2023-05-10T11:15:33;22.85;;;10.10;;
75261;SDS011;63859;51.064;4.580;2023-05-10T11:21:02;16.95;;;9.00;;
75261;SDS011;63859;51.064;4.580;2023-05-10T11:24:13;14.10;;;8.52;;
75261;SDS011;63859;51.064;4.580;2023-05-10T11:26:23;17.38;;;9.30;;
75261;SDS011;63859;51.064;4.580;2023-05-10T11:28:53;16.80;;;9.13;;
75261;SDS011;63859;51.064;4.580;2023-05-10T11:31:24;15.43;;;8.80;;
75261;SDS011;63859;51.064;4.580;2023-05-10T11:33:52;14.65;;;8.93;;
75261;SDS011;63859;51.064;4.580;2023-05-10T11:36:26;13.40;;;8.90;;
75261;SDS011;63859;51.064;4.580;2023-05-10T11:38:53;16.77;;;8.98;;
75261;SDS011;63859;51.064;4.580;2023-05-10T11:41:21;13.05;;;8.90;;
75261;SDS011;63859;51.064;4.580;2023-05-10T11:43:49;18.17;;;8.40;;
75261;SDS011;63859;51.064;4.580;2023-05-10T11:46:17;12.20;;;7.85;;
75261;SDS011;63859;51.064;4.580;2023-05-10T11:48:45;17.65;;;8.70;;
75261;SDS011;63859;51.064;4.580;2023-05-10T11:51:14;14.50;;;8.00;;
75261;SDS011;63859;51.064;4.580;2023-05-10T11:53:40;15.38;;;8.18;;
75261;SDS011;63859;51.064;4.580;2023-05-10T11:56:06;15.90;;;8.80;;
75261;SDS011;63859;51.064;4.580;2023-05-10T11:58:34;20.35;;;8.88;;
75261;SDS011;63859;51.064;4.580;2023-05-10T12:01:02;11.98;;;7.35;;
75261;SDS011;63859;51.064;4.580;2023-05-10T12:03:29;16.45;;;8.38;;
75261;SDS011;63859;51.064;4.580;2023-05-10T12:05:56;18.75;;;8.18;;
75261;SDS011;63859;51.064;4.580;2023-05-10T12:08:23;14.80;;;8.00;;
75261;SDS011;63859;51.064;4.580;2023-05-10T12:10:51;12.60;;;7.45;;
75261;SDS011;63859;51.064;4.580;2023-05-10T12:13:29;11.13;;;7.43;;
75261;SDS011;63859;51.064;4.580;2023-05-10T12:15:59;10.38;;;7.30;;
75261;SDS011;63859;51.064;4.580;2023-05-10T12:18:25;11.38;;;7.13;;
75261;SDS011;63859;51.064;4.580;2023-05-10T12:20:51;10.95;;;7.40;;
75261;SDS011;63859;51.064;4.580;2023-05-10T12:23:18;12.93;;;7.10;;
75261;SDS011;63859;51.064;4.580;2023-05-10T12:25:49;12.48;;;7.03;;
75261;SDS011;63859;51.064;4.580;2023-05-10T12:28:16;10.52;;;6.72;;
75261;SDS011;63859;51.064;4.580;2023-05-10T12:30:44;12.45;;;6.93;;
75261;SDS011;63859;51.064;4.580;2023-05-10T12:33:11;10.90;;;7.20;;
75261;SDS011;63859;51.064;4.580;2023-05-10T12:35:51;9.35;;;6.88;;
75261;SDS011;63859;51.064;4.580;2023-05-10T12:41:12;9.32;;;6.57;;
75261;SDS011;63859;51.064;4.580;2023-05-10T12:43:39;9.05;;;7.00;;
75261;SDS011;63859;51.064;4.580;2023-05-10T12:46:09;9.15;;;6.72;;
75261;SDS011;63859;51.064;4.580;2023-05-10T12:48:36;11.45;;;6.90;;
75261;SDS011;63859;51.064;4.580;2023-05-10T12:51:03;10.05;;;6.18;;
75261;SDS011;63859;51.064;4.580;2023-05-10T12:53:30;11.25;;;6.38;;
75261;SDS011;63859;51.064;4.580;2023-05-10T12:55:56;11.95;;;6.95;;
75261;SDS011;63859;51.064;4.580;2023-05-10T12:58:22;10.70;;;6.80;;
75261;SDS011;63859;51.064;4.580;2023-05-10T13:00:48;9.57;;;7.03;;
75261;SDS011;63859;51.064;4.580;2023-05-10T13:03:16;9.48;;;7.03;;
75261;SDS011;63859;51.064;4.580;2023-05-10T13:05:42;11.90;;;7.63;;
75261;SDS011;63859;51.064;4.580;2023-05-10T13:08:07;11.88;;;6.68;;
75261;SDS011;63859;51.064;4.580;2023-05-10T13:10:33;32.67;;;9.68;;
75261;SDS011;63859;51.064;4.580;2023-05-10T13:12:59;14.23;;;8.13;;
75261;SDS011;63859;51.064;4.580;2023-05-10T13:15:25;14.32;;;10.02;;
75261;SDS011;63859;51.064;4.580;2023-05-10T13:17:51;14.25;;;8.85;;
75261;SDS011;63859;51.064;4.580;2023-05-10T13:20:18;13.20;;;8.20;;
75261;SDS011;63859;51.064;4.580;2023-05-10T13:22:43;13.68;;;8.30;;
75261;SDS011;63859;51.064;4.580;2023-05-10T13:25:10;14.27;;;8.60;;
75261;SDS011;63859;51.064;4.580;2023-05-10T13:27:36;15.02;;;8.25;;
75261;SDS011;63859;51.064;4.580;2023-05-10T13:30:05;12.95;;;7.65;;
75261;SDS011;63859;51.064;4.580;2023-05-10T13:32:32;14.18;;;8.35;;
75261;SDS011;63859;51.064;4.580;2023-05-10T13:34:58;16.05;;;8.23;;
75261;SDS011;63859;51.064;4.580;2023-05-10T13:37:24;14.02;;;7.60;;
75261;SDS011;63859;51.064;4.580;2023-05-10T13:39:50;12.63;;;7.43;;
75261;SDS011;63859;51.064;4.580;2023-05-10T13:42:15;17.58;;;7.60;;
75261;SDS011;63859;51.064;4.580;2023-05-10T13:44:41;14.20;;;8.20;;
75261;SDS011;63859;51.064;4.580;2023-05-10T13:47:07;10.98;;;7.10;;
75261;SDS011;63859;51.064;4.580;2023-05-10T13:49:35;15.55;;;7.22;;
75261;SDS011;63859;51.064;4.580;2023-05-10T13:52:01;11.80;;;7.88;;
75261;SDS011;63859;51.064;4.580;2023-05-10T13:54:32;10.98;;;8.07;;
75261;SDS011;63859;51.064;4.580;2023-05-10T13:56:59;12.85;;;8.13;;
75261;SDS011;63859;51.064;4.580;2023-05-10T13:59:25;11.80;;;8.35;;
75261;SDS011;63859;51.064;4.580;2023-05-10T14:01:50;11.15;;;8.60;;
75261;SDS011;63859;51.064;4.580;2023-05-10T14:04:16;14.35;;;8.65;;
75261;SDS011;63859;51.064;4.580;2023-05-10T14:06:42;13.55;;;9.10;;
75261;SDS011;63859;51.064;4.580;2023-05-10T14:09:08;14.55;;;8.93;;
75261;SDS011;63859;51.064;4.580;2023-05-10T14:11:33;13.65;;;9.40;;
75261;SDS011;63859;51.064;4.580;2023-05-10T14:13:59;17.88;;;9.43;;
75261;SDS011;63859;51.064;4.580;2023-05-10T14:16:25;15.82;;;9.13;;
75261;SDS011;63859;51.064;4.580;2023-05-10T14:18:52;15.20;;;8.50;;
75261;SDS011;63859;51.064;4.580;2023-05-10T14:21:17;17.15;;;9.20;;
75261;SDS011;63859;51.064;4.580;2023-05-10T14:23:43;13.38;;;8.57;;
75261;SDS011;63859;51.064;4.580;2023-05-10T14:26:08;14.88;;;9.13;;
75261;SDS011;63859;51.064;4.580;2023-05-10T14:28:34;13.90;;;9.00;;
75261;SDS011;63859;51.064;4.580;2023-05-10T14:31:00;14.52;;;9.05;;
75261;SDS011;63859;51.064;4.580;2023-05-10T14:33:26;15.52;;;9.80;;
75261;SDS011;63859;51.064;4.580;2023-05-10T14:35:52;17.73;;;10.45;;
75261;SDS011;63859;51.064;4.580;2023-05-10T14:38:19;15.98;;;9.57;;
75261;SDS011;63859;51.064;4.580;2023-05-10T14:40:44;14.48;;;9.25;;
75261;SDS011;63859;51.064;4.580;2023-05-10T14:43:10;14.63;;;9.55;;
75261;SDS011;63859;51.064;4.580;2023-05-10T14:45:36;14.95;;;9.15;;
75261;SDS011;63859;51.064;4.580;2023-05-10T14:48:01;15.13;;;10.43;;
75261;SDS011;63859;51.064;4.580;2023-05-10T14:50:29;16.50;;;10.68;;
75261;SDS011;63859;51.064;4.580;2023-05-10T14:52:56;21.10;;;11.20;;
75261;SDS011;63859;51.064;4.580;2023-05-10T14:55:22;16.95;;;10.25;;
75261;SDS011;63859;51.064;4.580;2023-05-10T14:57:48;18.92;;;11.05;;
75261;SDS011;63859;51.064;4.580;2023-05-10T15:00:15;15.75;;;11.45;;
75261;SDS011;63859;51.064;4.580;2023-05-10T15:02:42;21.00;;;11.70;;
75261;SDS011;63859;51.064;4.580;2023-05-10T15:05:08;20.63;;;11.60;;